Time;durP1;ratioP1;P1;durP2;ratioP2;P2;SDS_P1;SDS_P2;PMS_P1;PMS_P2;Temp;Humidity;BMP_temperature;BMP_pressure;BME280_temperature;BME280_humidity;BME280_pressure;Samples;Min_cycle;Max_cycle;Signal;HPM_P1;HPM_P2
2023/09/28 00:01:00;;;;;;;;;;;;;;;18.49;100.00;98068.84;5110942;28;19934;-71
2023/09/28 00:03:27;;;;;;;;;;;;;;;18.53;100.00;98065.25;5117441;28;19938;-71
2023/09/28 00:05:53;;;;;;;;;;;;;;;18.57;100.00;98074.31;5118056;28;19997;-71
2023/09/28 00:08:19;;;;;;;;;;;;;;;18.58;100.00;98073.22;5118393;28;19928;-71
2023/09/28 00:10:45;;;;;;;;;;;;;;;18.58;100.00;98075.13;5118017;28;19920;-71
2023/09/28 00:13:11;;;;;;;;;;;;;;;18.56;100.00;98082.75;5114425;28;19946;-71
2023/09/28 00:15:37;;;;;;;;;;;;;;;18.57;100.00;98076.25;5112794;28;19931;-71
2023/09/28 00:18:06;;;;;;;;;;;;;;;18.56;100.00;98088.16;5116054;28;19984;-71
2023/09/28 00:20:33;;;;;;;;;;;;;;;18.56;100.00;98088.97;5122720;28;19932;-71
2023/09/28 00:22:58;;;;;;;;;;;;;;;18.55;100.00;98089.25;5114070;28;19930;-71
2023/09/28 00:25:25;;;;;;;;;;;;;;;18.54;100.00;98099.28;5120444;28;19920;-71
2023/09/28 00:27:52;;;;;;;;;;;;;;;18.52;100.00;98098.78;5121290;28;19950;-71
2023/09/28 00:30:22;;;;;;;;;;;;;;;18.52;100.00;98104.19;5113190;28;19931;-71
2023/09/28 00:32:48;;;;;;;;;;;;;;;18.52;100.00;98098.78;5119026;28;19924;-71
2023/09/28 00:35:16;;;;;;;;;;;;;;;18.46;100.00;98096.50;5120165;28;19935;-71
2023/09/28 00:37:42;;;;;;;;;;;;;;;18.43;100.00;98100.63;5118733;28;19924;-71
2023/09/28 00:40:17;;;;;;;;;;;;;;;18.44;100.00;98099.53;5121455;28;19935;-71
2023/09/28 00:42:43;;;;;;;;;;;;;;;18.44;100.00;98104.13;5121579;28;19975;-71
2023/09/28 00:45:09;;;;;;;;;;;;;;;18.44;100.00;98101.44;5121145;28;19923;-71
2023/09/28 00:47:36;;;;;;;;;;;;;;;18.44;100.00;98104.13;5115656;28;19924;-71
2023/09/28 00:50:03;;;;;;;;;;;;;;;18.44;100.00;98093.31;5116885;28;19924;-71
2023/09/28 00:52:33;;;;;;;;;;;;;;;18.45;100.00;98105.72;5119922;28;19924;-71
2023/09/28 00:54:59;;;;;;;;;;;;;;;18.41;100.00;98092.03;5122809;28;19935;-71
2023/09/28 00:57:26;;;;;;;;;;;;;;;18.41;100.00;98086.63;5117633;28;19923;-71
2023/09/28 00:59:54;;;;;;;;;;;;;;;18.40;100.00;98087.72;5097947;28;20620;-71
2023/09/28 01:02:19;;;;;;;;;;;;;;;18.41;100.00;98086.63;5108318;28;20448;-71
2023/09/28 01:04:46;;;;;;;;;;;;;;;18.40;100.00;98086.91;5121553;28;20064;-71
2023/09/28 01:07:12;;;;;;;;;;;;;;;18.39;100.00;98085.31;5122271;28;19919;-70
2023/09/28 01:09:39;;;;;;;;;;;;;;;18.40;100.00;98097.72;5114010;28;19959;-71
2023/09/28 01:12:10;;;;;;;;;;;;;;;18.39;100.00;98096.13;5121691;28;19924;-71
2023/09/28 01:14:36;;;;;;;;;;;;;;;18.38;100.00;98100.75;5120638;28;19928;-70
2023/09/28 01:17:03;;;;;;;;;;;;;;;18.32;100.00;98101.97;5106391;28;19924;-71
2023/09/28 01:19:29;;;;;;;;;;;;;;;18.29;100.00;98105.28;5118889;28;19935;-70
2023/09/28 01:21:56;;;;;;;;;;;;;;;18.29;100.00;98106.09;5096703;28;19931;-70
2023/09/28 01:24:23;;;;;;;;;;;;;;;18.29;100.00;98108.78;5118435;28;19924;-70
2023/09/28 01:26:49;;;;;;;;;;;;;;;18.28;100.00;98109.91;5120294;28;19924;-70
2023/09/28 01:29:16;;;;;;;;;;;;;;;18.27;100.00;98121.03;5115597;28;19923;-70
2023/09/28 01:31:42;;;;;;;;;;;;;;;18.27;100.00;98124.53;5116358;28;19924;-71
2023/09/28 01:34:09;;;;;;;;;;;;;;;18.25;100.00;98129.47;5119656;28;19956;-71
2023/09/28 01:36:35;;;;;;;;;;;;;;;18.25;100.00;98121.34;5119653;28;19967;-71
2023/09/28 01:39:02;;;;;;;;;;;;;;;18.24;100.00;98114.34;5102777;28;19981;-71
2023/09/28 01:41:30;;;;;;;;;;;;;;;18.22;100.00;98111.16;5116283;28;20489;-70
2023/09/28 01:43:55;;;;;;;;;;;;;;;18.18;100.00;98112.84;5114468;28;19947;-70
2023/09/28 01:46:22;;;;;;;;;;;;;;;18.17;100.00;98110.44;5111758;28;19928;-70
2023/09/28 01:48:47;;;;;;;;;;;;;;;18.19;100.00;98109.06;5120397;28;19924;-70
2023/09/28 01:51:13;;;;;;;;;;;;;;;18.18;100.00;98102.03;5115054;28;19924;-70
2023/09/28 01:53:39;;;;;;;;;;;;;;;18.18;100.00;98112.84;5116646;28;19958;-70
2023/09/28 01:56:05;;;;;;;;;;;;;;;18.18;100.00;98103.94;5119867;28;19924;-70
2023/09/28 01:58:33;;;;;;;;;;;;;;;18.16;100.00;98104.25;5119718;28;19928;-70
2023/09/28 02:00:59;;;;;;;;;;;;;;;18.11;100.00;98100.88;5120669;28;19924;-70
2023/09/28 02:03:25;;;;;;;;;;;;;;;18.06;100.00;98098.28;5115992;28;19949;-70
2023/09/28 02:05:52;;;;;;;;;;;;;;;17.99;100.00;98096.00;5106846;28;19947;-70
2023/09/28 02:08:19;;;;;;;;;;;;;;;17.90;100.00;98099.75;5110649;28;19921;-70
2023/09/28 02:10:45;;;;;;;;;;;;;;;17.89;100.00;98090.84;5119841;28;19955;-70
2023/09/28 02:13:12;;;;;;;;;;;;;;;17.92;100.00;98103.72;5114015;28;19986;-70
2023/09/28 02:15:41;;;;;;;;;;;;;;;17.95;100.00;98105.06;5111066;28;19930;-70
2023/09/28 02:18:08;;;;;;;;;;;;;;;17.89;100.00;98101.66;5111429;28;19962;-70
2023/09/28 02:20:34;;;;;;;;;;;;;;;17.75;100.00;98107.09;5118924;28;19954;-69
2023/09/28 02:23:00;;;;;;;;;;;;;;;17.72;100.00;98109.63;5120080;28;19943;-69
2023/09/28 02:25:27;;;;;;;;;;;;;;;17.69;100.00;98108.31;5096721;28;19993;-71
2023/09/28 02:27:53;;;;;;;;;;;;;;;17.78;100.00;98106.50;5113711;28;19924;-71
2023/09/28 02:30:22;;;;;;;;;;;;;;;17.80;100.00;98108.88;5118436;28;19935;-71
2023/09/28 02:32:49;;;;;;;;;;;;;;;17.80;100.00;98111.59;5119441;28;19920;-71
2023/09/28 02:35:16;;;;;;;;;;;;;;;17.74;100.00;98112.81;5114106;28;19923;-69
2023/09/28 02:37:43;;;;;;;;;;;;;;;17.81;100.00;98118.59;5116973;28;20571;-70
2023/09/28 02:40:11;;;;;;;;;;;;;;;17.83;100.00;98110.16;5118920;28;19928;-69
2023/09/28 02:42:36;;;;;;;;;;;;;;;17.84;100.00;98106.38;5119425;28;19945;-70
2023/09/28 02:45:09;;;;;;;;;;;;;;;17.84;100.00;98106.38;5119273;28;20533;-70
2023/09/28 02:47:34;;;;;;;;;;;;;;;17.84;100.00;98117.97;5111740;28;20012;-70
2023/09/28 02:50:02;;;;;;;;;;;;;;;17.87;100.00;98116.56;5112390;28;19931;-70
2023/09/28 02:52:27;;;;;;;;;;;;;;;17.86;100.00;98120.41;5118416;28;19928;-70
2023/09/28 02:54:54;;;;;;;;;;;;;;;17.87;100.00;98116.56;5119467;28;19924;-70
2023/09/28 02:57:19;;;;;;;;;;;;;;;17.88;100.00;98127.09;5113732;28;19930;-71
2023/09/28 02:59:46;;;;;;;;;;;;;;;17.87;100.00;98113.88;5114685;28;19924;-70
2023/09/28 03:02:13;;;;;;;;;;;;;;;17.84;100.00;98130.69;5118187;28;20015;-70
2023/09/28 03:04:40;;;;;;;;;;;;;;;17.82;100.00;98136.41;5118499;28;19924;-70
2023/09/28 03:07:08;;;;;;;;;;;;;;;17.63;100.00;98133.84;5119946;28;19924;-70
2023/09/28 03:09:33;;;;;;;;;;;;;;;17.58;100.00;98141.22;5115704;28;19924;-70
2023/09/28 03:12:00;;;;;;;;;;;;;;;17.67;100.00;98142.16;5112464;28;20010;-70
2023/09/28 03:14:25;;;;;;;;;;;;;;;17.70;100.00;98146.94;5118412;28;19928;-71
2023/09/28 03:16:52;;;;;;;;;;;;;;;17.72;100.00;98142.03;5105560;28;19955;-71
2023/09/28 03:19:17;;;;;;;;;;;;;;;17.76;100.00;98143.03;5118859;28;19919;-71
2023/09/28 03:21:44;;;;;;;;;;;;;;;17.72;100.00;98142.03;5121957;28;19912;-71
2023/09/28 03:24:11;;;;;;;;;;;;;;;17.70;100.00;98155.03;5125066;28;19924;-71
2023/09/28 03:26:37;;;;;;;;;;;;;;;17.73;100.00;98157.16;5105387;28;20329;-70
2023/09/28 03:29:04;;;;;;;;;;;;;;;17.74;100.00;98150.63;5119836;28;19923;-71
2023/09/28 03:31:32;;;;;;;;;;;;;;;17.74;100.00;98156.81;5114820;28;19994;-70
2023/09/28 03:33:58;;;;;;;;;;;;;;;17.67;100.00;98155.66;5112129;28;19928;-70
2023/09/28 03:36:24;;;;;;;;;;;;;;;17.48;100.00;98152.25;5117813;28;19928;-70
2023/09/28 03:38:51;;;;;;;;;;;;;;;16.97;100.00;98157.81;5118609;28;19978;-70
2023/09/28 03:41:19;;;;;;;;;;;;;;;17.16;100.00;98155.84;5112735;28;19999;-70
2023/09/28 03:43:48;;;;;;;;;;;;;;;17.28;100.00;98143.44;5095558;28;19924;-70
2023/09/28 03:46:18;;;;;;;;;;;;;;;17.39;100.00;98146.75;5109768;28;19992;-70
2023/09/28 03:48:45;;;;;;;;;;;;;;;17.39;100.00;98137.84;5120381;28;19927;-70
2023/09/28 03:51:11;;;;;;;;;;;;;;;17.27;100.00;98139.13;5098691;28;19925;-70
2023/09/28 03:53:39;;;;;;;;;;;;;;;17.27;100.00;98135.63;5118901;28;20013;-70
2023/09/28 03:56:06;;;;;;;;;;;;;;;17.19;100.00;98139.03;5122662;28;19920;-70
2023/09/28 03:58:34;;;;;;;;;;;;;;;17.26;100.00;98134.84;5123046;28;19924;-70
2023/09/28 04:01:03;;;;;;;;;;;;;;;17.37;100.00;98140.03;5095804;28;19930;-71
2023/09/28 04:03:29;;;;;;;;;;;;;;;17.43;100.00;98144.22;5120324;28;19928;-70
2023/09/28 04:05:55;;;;;;;;;;;;;;;17.50;100.00;98150.03;5121410;28;19928;-70
2023/09/28 04:08:22;;;;;;;;;;;;;;;17.54;100.00;98165.34;5121374;28;19936;-70
2023/09/28 04:10:50;;;;;;;;;;;;;;;17.58;100.00;98162.84;5103703;28;19923;-70
2023/09/28 04:13:16;;;;;;;;;;;;;;;17.60;100.00;98166.06;5116348;28;19931;-70
2023/09/28 04:15:44;;;;;;;;;;;;;;;17.60;100.00;98161.47;5111243;28;19924;-70
2023/09/28 04:18:11;;;;;;;;;;;;;;;17.60;100.00;98161.47;5117462;28;19931;-70
2023/09/28 04:20:37;;;;;;;;;;;;;;;17.60;100.00;98171.47;5122323;28;19992;-70
2023/09/28 04:23:05;;;;;;;;;;;;;;;17.57;100.00;98167.47;5121693;28;20441;-70
2023/09/28 04:25:33;;;;;;;;;;;;;;;17.58;100.00;98173.63;5112975;28;19951;-71
2023/09/28 04:27:59;;;;;;;;;;;;;;;17.49;100.00;98165.41;5121184;28;19924;-71
2023/09/28 04:30:25;;;;;;;;;;;;;;;17.51;100.00;98173.25;5121508;28;19928;-70
2023/09/28 04:32:54;;;;;;;;;;;;;;;17.56;100.00;98178.56;5122387;28;19946;-69
2023/09/28 04:35:20;;;;;;;;;;;;;;;17.57;100.00;98182.88;5113134;28;19931;-69
2023/09/28 04:37:48;;;;;;;;;;;;;;;17.49;100.00;98178.91;5124805;28;19928;-69
2023/09/28 04:40:14;;;;;;;;;;;;;;;17.41;100.00;98189.63;5117656;28;20007;-70
2023/09/28 04:42:41;;;;;;;;;;;;;;;17.26;100.00;98186.16;5121293;28;19931;-70
2023/09/28 04:45:09;;;;;;;;;;;;;;;17.08;100.00;98183.53;5120630;28;19923;-70
2023/09/28 04:47:36;;;;;;;;;;;;;;;17.04;100.00;98180.63;5095663;28;19963;-70
2023/09/28 04:50:04;;;;;;;;;;;;;;;17.04;100.00;98175.22;5096111;28;19988;-70
2023/09/28 04:52:31;;;;;;;;;;;;;;;17.20;100.00;98178.44;5120604;28;19928;-70
2023/09/28 04:54:57;;;;;;;;;;;;;;;17.23;100.00;98188.63;5121891;28;19992;-70
2023/09/28 04:57:25;;;;;;;;;;;;;;;17.28;100.00;98196.63;5116278;28;19934;-70
2023/09/28 04:59:51;;;;;;;;;;;;;;;17.16;100.00;98193.63;5114558;28;19924;-70
2023/09/28 05:02:18;;;;;;;;;;;;;;;16.99;100.00;98188.00;5120464;28;19943;-70
2023/09/28 05:04:44;;;;;;;;;;;;;;;16.77;100.00;98193.25;5120683;28;19924;-70
2023/09/28 05:07:12;;;;;;;;;;;;;;;16.74;100.00;98192.72;5122342;28;19946;-70
2023/09/28 05:09:39;;;;;;;;;;;;;;;16.91;100.00;98194.06;5119107;28;19946;-70
2023/09/28 05:12:05;;;;;;;;;;;;;;;16.97;100.00;98201.78;5115853;28;20055;-70
2023/09/28 05:14:31;;;;;;;;;;;;;;;16.68;100.00;98203.91;5118661;28;19936;-70
2023/09/28 05:16:58;;;;;;;;;;;;;;;16.46;100.00;98212.59;5105655;28;19920;-70
2023/09/28 05:19:25;;;;;;;;;;;;;;;16.52;100.00;98210.63;5116499;28;19920;-70
2023/09/28 05:21:51;;;;;;;;;;;;;;;16.59;100.00;98219.94;5115767;28;19932;-70
2023/09/28 05:24:19;;;;;;;;;;;;;;;16.60;100.00;98218.88;5120428;28;19988;-71
2023/09/28 05:26:46;;;;;;;;;;;;;;;16.91;100.00;98219.16;5120364;28;20492;-70
2023/09/28 05:29:12;;;;;;;;;;;;;;;17.08;100.00;98216.69;5121788;28;19986;-70
2023/09/28 05:31:39;;;;;;;;;;;;;;;16.84;100.00;98224.13;5101191;28;19934;-70
2023/09/28 05:34:05;;;;;;;;;;;;;;;16.42;100.00;98221.56;5115466;28;19928;-70
2023/09/28 05:36:31;;;;;;;;;;;;;;;16.26;100.00;98218.28;5120852;28;19939;-70
2023/09/28 05:38:58;;;;;;;;;;;;;;;16.30;100.00;98237.38;5122001;28;20403;-70
2023/09/28 05:41:26;;;;;;;;;;;;;;;15.92;100.00;98229.25;5117041;28;19924;-70
2023/09/28 05:43:52;;;;;;;;;;;;;;;15.41;100.00;98239.00;5098086;28;19963;-70
2023/09/28 05:46:19;;;;;;;;;;;;;;;15.33;100.00;98239.63;5082002;28;19930;-70
2023/09/28 05:48:45;;;;;;;;;;;;;;;15.61;100.00;98236.13;5121195;28;19988;-70
2023/09/28 05:51:12;;;;;;;;;;;;;;;16.28;100.00;98242.25;5121315;28;19924;-71
2023/09/28 05:53:38;;;;;;;;;;;;;;;16.64;100.00;98241.47;5112324;28;19946;-70
2023/09/28 05:56:05;;;;;;;;;;;;;;;16.86;100.00;98234.63;5120374;28;19935;-70
2023/09/28 05:58:33;;;;;;;;;;;;;;;16.82;100.00;98241.72;5120243;28;19951;-70
2023/09/28 06:01:06;;;;;;;;;;;;;;;16.88;100.00;98240.53;5123859;28;19924;-71
2023/09/28 06:03:32;;;;;;;;;;;;;;;16.93;100.00;98238.53;5124353;28;19970;-71
2023/09/28 06:05:59;;;;;;;;;;;;;;;16.73;100.00;98239.69;5121852;28;19984;-71
2023/09/28 06:08:25;;;;;;;;;;;;;;;16.25;100.00;98254.41;5126035;28;19938;-71
2023/09/28 06:10:52;;;;;;;;;;;;;;;16.19;100.00;98245.59;5126956;28;20002;-71
2023/09/28 06:13:18;;;;;;;;;;;;;;;15.73;100.00;98254.53;5128110;28;19912;-71
2023/09/28 06:15:46;;;;;;;;;;;;;;;15.65;100.00;98264.06;5111933;28;19913;-71
2023/09/28 06:18:13;;;;;;;;;;;;;;;15.57;100.00;98262.81;5116990;28;19912;-71
2023/09/28 06:20:39;;;;;;;;;;;;;;;15.42;100.00;98264.81;5122525;28;19920;-69
2023/09/28 06:23:09;;;;;;;;;;;;;;;15.22;100.00;98265.84;5120855;28;19924;-70
2023/09/28 06:25:35;;;;;;;;;;;;;;;15.43;100.00;98264.56;5117842;28;19927;-70
2023/09/28 06:28:01;;;;;;;;;;;;;;;15.23;100.00;98264.75;5114865;28;19934;-70
2023/09/28 06:30:28;;;;;;;;;;;;;;;15.50;100.00;98264.25;5118593;28;19924;-68
2023/09/28 06:32:55;;;;;;;;;;;;;;;15.51;100.00;98272.03;5119872;28;19935;-69
2023/09/28 06:35:22;;;;;;;;;;;;;;;15.29;100.00;98279.75;5121461;28;19955;-69
2023/09/28 06:37:49;;;;;;;;;;;;;;;15.30;100.00;98275.19;5119533;28;19995;-70
2023/09/28 06:40:16;;;;;;;;;;;;;;;15.28;100.00;98271.97;5111800;28;20285;-70
2023/09/28 06:42:42;;;;;;;;;;;;;;;15.11;100.00;98275.09;5120179;28;19958;-70
2023/09/28 06:45:09;;;;;;;;;;;;;;;14.95;100.00;98271.72;5101342;28;19946;-69
2023/09/28 06:47:35;;;;;;;;;;;;;;;15.01;100.00;98270.59;5118062;28;19932;-69
2023/09/28 06:50:04;;;;;;;;;;;;;;;15.16;100.00;98268.88;5114109;28;19924;-70
2023/09/28 06:52:30;;;;;;;;;;;;;;;15.22;100.00;98275.81;5117593;28;19931;-70
2023/09/28 06:54:57;;;;;;;;;;;;;;;15.07;100.00;98274.06;5119163;28;19924;-70
2023/09/28 06:57:23;;;;;;;;;;;;;;;15.16;100.00;98279.63;5120438;28;19924;-71
2023/09/28 06:59:50;;;;;;;;;;;;;;;15.04;100.00;98278.09;5118277;28;19947;-69
2023/09/28 07:02:16;;;;;;;;;;;;;;;14.98;100.00;98281.09;5095886;28;19931;-70
2023/09/28 07:04:42;;;;;;;;;;;;;;;14.91;100.00;98286.03;5115482;28;19925;-70
2023/09/28 07:07:16;;;;;;;;;;;;;;;14.91;100.00;98291.41;5118342;28;19924;-71
2023/09/28 07:09:42;;;;;;;;;;;;;;;15.08;100.00;98289.91;5118764;28;19967;-72
2023/09/28 07:12:10;;;;;;;;;;;;;;;15.16;100.00;98293.09;5113936;28;19920;-71
2023/09/28 07:14:36;;;;;;;;;;;;;;;15.50;100.00;98294.66;5116128;28;19931;-71
2023/09/28 07:17:03;;;;;;;;;;;;;;;15.71;100.00;98289.84;5102627;28;19920;-70
2023/09/28 07:19:30;;;;;;;;;;;;;;;15.75;100.00;98293.59;5119409;28;19924;-72
2023/09/28 07:21:56;;;;;;;;;;;;;;;15.85;100.00;98298.03;5118958;28;19924;-71
2023/09/28 07:24:25;;;;;;;;;;;;;;;16.03;100.00;98299.97;5114011;28;19927;-71
2023/09/28 07:26:52;;;;;;;;;;;;;;;15.88;100.00;98298.25;5114465;28;19924;-71
2023/09/28 07:29:19;;;;;;;;;;;;;;;15.99;100.00;98299.75;5100484;28;19924;-70
2023/09/28 07:31:45;;;;;;;;;;;;;;;16.10;100.00;98298.53;5118452;28;19923;-71
2023/09/28 07:34:11;;;;;;;;;;;;;;;16.03;100.00;98305.38;5113323;28;19924;-70
2023/09/28 07:36:39;;;;;;;;;;;;;;;15.94;100.00;98309.75;5115552;28;19927;-70
2023/09/28 07:39:05;;;;;;;;;;;;;;;16.20;100.00;98317.28;5118345;28;20325;-70
2023/09/28 07:41:33;;;;;;;;;;;;;;;16.47;100.00;98316.63;5118457;28;19924;-70
2023/09/28 07:44:00;;;;;;;;;;;;;;;16.29;100.00;98322.81;5119519;28;19928;-70
2023/09/28 07:46:27;;;;;;;;;;;;;;;16.16;100.00;98335.09;5102028;28;19931;-70
2023/09/28 07:48:55;;;;;;;;;;;;;;;16.08;100.00;98330.34;5116235;28;19954;-70
2023/09/28 07:51:21;;;;;;;;;;;;;;;15.97;100.00;98328.84;5109084;28;19956;-70
2023/09/28 07:53:48;;;;;;;;;;;;;;;15.51;100.00;98331.25;5119680;28;19928;-71
2023/09/28 07:56:14;;;;;;;;;;;;;;;15.47;100.00;98340.16;5112809;28;19934;-71
2023/09/28 07:58:42;;;;;;;;;;;;;;;15.51;100.00;98339.31;5115574;28;19924;-71
2023/09/28 08:01:09;;;;;;;;;;;;;;;15.55;100.00;98337.66;5118676;28;19957;-71
2023/09/28 08:03:37;;;;;;;;;;;;;;;15.60;100.00;98334.09;5118944;28;19924;-71
2023/09/28 08:06:03;;;;;;;;;;;;;;;15.70;100.00;98347.47;5119750;28;19920;-71
2023/09/28 08:08:30;;;;;;;;;;;;;;;15.95;100.00;98347.22;5115744;28;19949;-70
2023/09/28 08:10:57;;;;;;;;;;;;;;;15.87;100.00;98350.53;5113157;28;19924;-70
2023/09/28 08:13:24;;;;;;;;;;;;;;;15.92;100.00;98352.34;5118721;28;19928;-70
2023/09/28 08:15:53;;;;;;;;;;;;;;;15.63;100.00;98344.31;5087468;28;20053;-71
2023/09/28 08:18:20;;;;;;;;;;;;;;;15.57;100.00;98348.13;5113496;28;19920;-70
2023/09/28 08:20:47;;;;;;;;;;;;;;;15.50;100.00;98350.38;5116668;28;19946;-71
2023/09/28 08:23:13;;;;;;;;;;;;;;;15.57;100.00;98350.84;5118921;28;19924;-71
2023/09/28 08:25:40;;;;;;;;;;;;;;;15.54;100.00;98354.09;5101511;28;20002;-71
2023/09/28 08:28:07;;;;;;;;;;;;;;;15.49;100.00;98354.16;5118801;28;19966;-71
2023/09/28 08:30:33;;;;;;;;;;;;;;;15.53;100.00;98363.28;5115267;28;19925;-69
2023/09/28 08:33:01;;;;;;;;;;;;;;;15.44;100.00;98371.09;5112143;28;19924;-70
2023/09/28 08:35:28;;;;;;;;;;;;;;;15.46;100.00;98371.66;5121720;28;19947;-70
2023/09/28 08:37:54;;;;;;;;;;;;;;;15.55;100.00;98358.41;5123102;28;19945;-70
2023/09/28 08:40:21;;;;;;;;;;;;;;;15.62;100.00;98358.88;5117149;28;20515;-70
2023/09/28 08:42:47;;;;;;;;;;;;;;;15.76;100.00;98351.72;5117512;28;19928;-70
2023/09/28 08:45:15;;;;;;;;;;;;;;;15.77;100.00;98347.94;5119285;28;19930;-70
2023/09/28 08:47:46;;;;;;;;;;;;;;;15.82;100.00;98345.19;5110689;28;19935;-71
2023/09/28 08:50:16;;;;;;;;;;;;;;;16.05;100.00;98346.28;5122623;28;19924;-71
2023/09/28 08:52:43;;;;;;;;;;;;;;;16.21;100.00;98353.09;5119973;28;19987;-70
2023/09/28 08:55:10;;;;;;;;;;;;;;;16.38;100.00;98348.03;5116085;28;20077;-70
2023/09/28 08:57:37;;;;;;;;;;;;;;;16.28;100.00;98345.44;5118815;28;19924;-71
2023/09/28 09:00:09;;;;;;;;;;;;;;;16.26;100.00;98352.22;5121045;28;20664;-70
2023/09/28 09:02:36;;;;;;;;;;;;;;;16.23;100.00;98352.81;5103910;28;19924;-70
2023/09/28 09:05:06;;;;;;;;;;;;;;;16.40;100.00;98355.84;5122178;28;19928;-71
2023/09/28 09:07:36;;;;;;;;;;;;;;;16.46;100.00;98343.91;5118288;28;19923;-70
2023/09/28 09:10:02;;;;;;;;;;;;;;;16.40;100.00;98336.97;5115071;28;19931;-70
2023/09/28 09:12:32;;;;;;;;;;;;;;;16.39;100.00;98330.75;5120711;28;19950;-71
2023/09/28 09:14:59;;;;;;;;;;;;;;;16.50;100.00;98331.41;5121443;28;19924;-70
2023/09/28 09:17:32;;;;;;;;;;;;;;;16.46;100.00;98328.53;5117791;28;19931;-71
2023/09/28 09:19:59;;;;;;;;;;;;;;;16.47;100.00;98334.69;5115783;28;19950;-70
2023/09/28 09:22:27;;;;;;;;;;;;;;;16.47;100.00;98342.78;5120087;28;19924;-70
2023/09/28 09:24:56;;;;;;;;;;;;;;;16.57;100.00;98334.59;5121149;28;19924;-70
2023/09/28 09:27:26;;;;;;;;;;;;;;;16.58;100.00;98328.13;5112946;28;19924;-71
2023/09/28 09:29:52;;;;;;;;;;;;;;;16.64;100.00;98326.94;5121680;28;19923;-71
2023/09/28 09:32:21;;;;;;;;;;;;;;;16.71;100.00;98333.56;5097780;28;19928;-71
2023/09/28 09:34:48;;;;;;;;;;;;;;;16.85;100.00;98336.34;5116617;28;19979;-70
2023/09/28 09:37:14;;;;;;;;;;;;;;;16.78;100.00;98333.19;5120631;28;19928;-69
2023/09/28 09:39:41;;;;;;;;;;;;;;;16.79;100.00;98326.72;5121687;28;19931;-70
2023/09/28 09:42:09;;;;;;;;;;;;;;;16.86;100.00;98329.84;5113541;28;19988;-70
2023/09/28 09:44:36;;;;;;;;;;;;;;;16.98;100.00;98322.09;5117441;28;19924;-71
2023/09/28 09:47:02;;;;;;;;;;;;;;;17.14;100.00;98325.38;5103129;28;19989;-70
2023/09/28 09:49:29;;;;;;;;;;;;;;;17.19;100.00;98317.97;5119978;28;19950;-70
2023/09/28 09:51:59;;;;;;;;;;;;;;;17.14;100.00;98304.56;5121242;28;20327;-71
2023/09/28 09:54:26;;;;;;;;;;;;;;;17.37;100.00;98302.00;5115762;28;19924;-71
2023/09/28 09:56:53;;;;;;;;;;;;;;;17.49;100.00;98305.03;5115336;28;19935;-71
2023/09/28 09:59:23;;;;;;;;;;;;;;;17.86;100.00;98304.13;5107223;28;20547;-70
2023/09/28 10:01:50;;;;;;;;;;;;;;;17.56;100.00;98309.00;5119697;28;19935;-70
2023/09/28 10:04:18;;;;;;;;;;;;;;;17.61;100.00;98308.88;5120949;28;19924;-71
2023/09/28 10:06:45;;;;;;;;;;;;;;;17.56;100.00;98305.47;5118331;28;19951;-71
2023/09/28 10:09:13;;;;;;;;;;;;;;;17.49;100.00;98313.13;5112132;28;19924;-70
2023/09/28 10:11:40;;;;;;;;;;;;;;;17.49;100.00;98316.63;5119459;28;19973;-71
2023/09/28 10:14:08;;;;;;;;;;;;;;;17.43;100.00;98317.81;5120688;28;19924;-73
2023/09/28 10:16:36;;;;;;;;;;;;;;;17.72;100.00;98309.50;5103054;28;19924;-71
2023/09/28 10:19:05;;;;;;;;;;;;;;;18.16;100.00;98314.31;5115809;28;19928;-71
2023/09/28 10:21:33;;;;;;;;;;;;;;;18.71;100.00;98304.19;5117845;28;19935;-70
2023/09/28 10:24:07;;;;;;;;;;;;;;;18.40;100.00;98308.66;5119573;28;19932;-71
2023/09/28 10:26:35;;;;;;;;;;;;;;;18.43;100.00;98313.44;5120797;28;19935;-71
2023/09/28 10:29:01;;;;;;;;;;;;;;;18.28;100.00;98310.00;5119380;28;19931;-71
2023/09/28 10:31:29;;;;;;;;;;;;;;;18.06;100.00;98309.91;5110859;28;20407;-71
2023/09/28 10:34:01;;;;;;;;;;;;;;;18.28;100.00;98312.69;5102188;28;19980;-71
2023/09/28 10:36:28;;;;;;;;;;;;;;;18.17;100.00;98310.47;5120432;28;19939;-71
2023/09/28 10:39:13;;;;;;;;;;;;;;;18.20;100.00;98310.69;5121323;28;20626;-70
2023/09/28 10:41:39;;;;;;;;;;;;;;;18.32;100.00;98302.84;5114844;28;19939;-72
2023/09/28 10:44:24;;;;;;;;;;;;;;;18.33;100.00;98299.06;5114572;28;19932;-71
2023/09/28 10:46:51;;;;;;;;;;;;;;;18.54;100.00;98293.22;5111690;28;19935;-71
2023/09/28 10:49:24;;;;;;;;;;;;;;;18.64;100.00;98298.41;5118926;28;20592;-70
2023/09/28 10:51:51;;;;;;;;;;;;;;;19.06;100.00;98294.44;5119390;28;19968;-71
2023/09/28 10:54:17;;;;;;;;;;;;;;;18.94;100.00;98297.69;5120935;28;19924;-71
2023/09/28 10:56:44;;;;;;;;;;;;;;;19.10;100.00;98295.41;5116917;28;19920;-71
2023/09/28 10:59:11;;;;;;;;;;;;;;;19.20;100.00;98295.94;5111337;28;19931;-71
2023/09/28 11:01:41;;;;;;;;;;;;;;;19.16;100.00;98297.66;5118309;28;19931;-71
2023/09/28 11:04:08;;;;;;;;;;;;;;;19.41;100.00;98296.25;5100539;28;19924;-71
2023/09/28 11:06:36;;;;;;;;;;;;;;;19.46;100.00;98298.03;5117136;28;19924;-71
2023/09/28 11:09:02;;;;;;;;;;;;;;;19.23;100.00;98299.94;5113831;28;19924;-71
2023/09/28 11:11:29;;;;;;;;;;;;;;;19.62;100.00;98296.53;5117348;28;19987;-71
2023/09/28 11:13:56;;;;;;;;;;;;;;;19.87;100.00;98290.41;5118788;28;19993;-71
2023/09/28 11:16:23;;;;;;;;;;;;;;;19.73;100.00;98295.94;5103663;28;19920;-71
2023/09/28 11:18:50;;;;;;;;;;;;;;;19.63;100.00;98282.66;5118008;28;19928;-71
2023/09/28 11:21:16;;;;;;;;;;;;;;;19.42;100.00;98292.44;5111517;28;19978;-71
2023/09/28 11:23:45;;;;;;;;;;;;;;;19.38;100.00;98281.41;5118411;28;19928;-71
2023/09/28 11:26:11;;;;;;;;;;;;;;;19.81;100.00;98281.63;5119855;28;19966;-71
2023/09/28 11:28:38;;;;;;;;;;;;;;;19.66;100.00;98284.75;5116080;28;19920;-71
2023/09/28 11:31:07;;;;;;;;;;;;;;;19.92;100.00;98284.84;5113387;28;19931;-71
2023/09/28 11:33:34;;;;;;;;;;;;;;;19.95;100.00;98284.22;5116216;28;19991;-72
2023/09/28 11:36:00;;;;;;;;;;;;;;;20.02;100.00;98286.47;5118847;28;19924;-71
2023/09/28 11:38:27;;;;;;;;;;;;;;;20.18;100.00;98288.41;5115414;28;19928;-71
2023/09/28 11:40:55;;;;;;;;;;;;;;;20.18;100.00;98296.56;5113448;28;19928;-71
2023/09/28 11:43:21;;;;;;;;;;;;;;;20.13;100.00;98304.84;5103163;28;19924;-71
2023/09/28 11:45:48;;;;;;;;;;;;;;;20.12;100.00;98305.94;5116399;28;19924;-71
2023/09/28 11:48:17;;;;;;;;;;;;;;;20.20;100.00;98294.34;5118939;28;19928;-71
2023/09/28 11:50:43;;;;;;;;;;;;;;;20.72;100.00;98287.06;5117442;28;19926;-71
2023/09/28 11:53:10;;;;;;;;;;;;;;;21.12;100.00;98295.84;5113085;28;19966;-71
2023/09/28 11:55:37;;;;;;;;;;;;;;;20.95;100.00;98288.50;5115627;28;19931;-71
2023/09/28 11:58:06;;;;;;;;;;;;;;;20.61;100.00;98285.78;5117944;28;20572;-71
2023/09/28 12:00:32;;;;;;;;;;;;;;;20.53;100.00;98277.66;5118822;28;19946;-72
2023/09/28 12:02:59;;;;;;;;;;;;;;;20.51;100.00;98272.56;5119243;28;19931;-73
2023/09/28 12:05:25;;;;;;;;;;;;;;;20.49;100.00;98261.19;5113961;28;19926;-72
2023/09/28 12:07:51;;;;;;;;;;;;;;;20.45;100.00;98265.69;5113669;28;19920;-71
2023/09/28 12:10:18;;;;;;;;;;;;;;;20.55;100.00;98264.56;5103472;28;19954;-72
2023/09/28 12:12:44;;;;;;;;;;;;;;;20.66;100.00;98268.56;5121887;28;19930;-71
2023/09/28 12:15:14;;;;;;;;;;;;;;;20.73;100.00;98266.97;5112993;28;19924;-71
2023/09/28 12:17:41;;;;;;;;;;;;;;;20.76;100.00;98270.94;5107532;28;19928;-71
2023/09/28 12:20:08;;;;;;;;;;;;;;;20.85;100.00;98258.16;5121791;28;19954;-73
2023/09/28 12:22:35;;;;;;;;;;;;;;;20.93;100.00;98260.88;5121848;28;19931;-72
2023/09/28 12:25:04;;;;;;;;;;;;;;;21.01;100.00;98257.34;5122796;28;19928;-71
2023/09/28 12:27:31;;;;;;;;;;;;;;;20.98;100.00;98247.13;5118175;28;19928;-71
2023/09/28 12:29:59;;;;;;;;;;;;;;;21.05;100.00;98245.81;5116619;28;19924;-72
2023/09/28 12:32:30;;;;;;;;;;;;;;;21.16;100.00;98244.41;5120690;28;19932;-71
2023/09/28 12:34:56;;;;;;;;;;;;;;;21.21;100.00;98227.94;5121223;28;19928;-71